sensor_id;sensor_type;location;lat;lon;timestamp;P1;durP1;ratioP1;P2;durP2;ratioP2
57023;SDS011;42916;54.346;18.562;2023-01-09T00:01:58;46.70;;;22.90;;
57023;SDS011;42916;54.346;18.562;2023-01-09T00:04:25;52.00;;;23.60;;
57023;SDS011;42916;54.346;18.562;2023-01-09T00:06:52;51.60;;;23.90;;
57023;SDS011;42916;54.346;18.562;2023-01-09T00:09:22;46.80;;;21.30;;
57023;SDS011;42916;54.346;18.562;2023-01-09T00:11:50;46.90;;;23.10;;
57023;SDS011;42916;54.346;18.562;2023-01-09T00:14:17;47.30;;;20.70;;
57023;SDS011;42916;54.346;18.562;2023-01-09T00:16:44;49.30;;;22.60;;
57023;SDS011;42916;54.346;18.562;2023-01-09T00:19:11;50.30;;;23.50;;
57023;SDS011;42916;54.346;18.562;2023-01-09T00:21:38;49.80;;;23.80;;
57023;SDS011;42916;54.346;18.562;2023-01-09T00:24:05;52.40;;;25.00;;
57023;SDS011;42916;54.346;18.562;2023-01-09T00:26:33;52.00;;;24.40;;
57023;SDS011;42916;54.346;18.562;2023-01-09T00:29:02;43.90;;;20.80;;
57023;SDS011;42916;54.346;18.562;2023-01-09T00:31:29;56.30;;;24.20;;
57023;SDS011;42916;54.346;18.562;2023-01-09T00:33:59;50.70;;;23.00;;
57023;SDS011;42916;54.346;18.562;2023-01-09T00:36:31;51.90;;;25.50;;
57023;SDS011;42916;54.346;18.562;2023-01-09T00:38:58;49.20;;;22.50;;
57023;SDS011;42916;54.346;18.562;2023-01-09T00:41:29;48.20;;;24.00;;
57023;SDS011;42916;54.346;18.562;2023-01-09T00:44:06;50.70;;;24.30;;
57023;SDS011;42916;54.346;18.562;2023-01-09T00:46:38;54.10;;;25.10;;
57023;SDS011;42916;54.346;18.562;2023-01-09T00:49:08;51.30;;;23.90;;
57023;SDS011;42916;54.346;18.562;2023-01-09T00:51:36;50.00;;;24.10;;
57023;SDS011;42916;54.346;18.562;2023-01-09T00:54:04;52.40;;;25.50;;
57023;SDS011;42916;54.346;18.562;2023-01-09T00:56:32;48.90;;;24.50;;
57023;SDS011;42916;54.346;18.562;2023-01-09T00:59:01;51.60;;;25.60;;
57023;SDS011;42916;54.346;18.562;2023-01-09T01:01:29;50.20;;;23.90;;
57023;SDS011;42916;54.346;18.562;2023-01-09T01:03:56;51.70;;;23.10;;
57023;SDS011;42916;54.346;18.562;2023-01-09T01:06:23;48.20;;;23.30;;
57023;SDS011;42916;54.346;18.562;2023-01-09T01:09:08;39.90;;;17.90;;
57023;SDS011;42916;54.346;18.562;2023-01-09T01:11:35;50.10;;;23.40;;
57023;SDS011;42916;54.346;18.562;2023-01-09T01:14:02;49.20;;;23.00;;
57023;SDS011;42916;54.346;18.562;2023-01-09T01:16:28;49.90;;;23.00;;
57023;SDS011;42916;54.346;18.562;2023-01-09T01:18:55;50.90;;;24.20;;
57023;SDS011;42916;54.346;18.562;2023-01-09T01:21:22;46.10;;;22.80;;
57023;SDS011;42916;54.346;18.562;2023-01-09T01:23:48;48.50;;;23.40;;
57023;SDS011;42916;54.346;18.562;2023-01-09T01:26:15;48.00;;;23.40;;
57023;SDS011;42916;54.346;18.562;2023-01-09T01:28:42;44.10;;;20.60;;
57023;SDS011;42916;54.346;18.562;2023-01-09T01:31:14;50.20;;;23.00;;
57023;SDS011;42916;54.346;18.562;2023-01-09T01:33:42;44.40;;;22.20;;
57023;SDS011;42916;54.346;18.562;2023-01-09T01:36:09;48.30;;;22.30;;
57023;SDS011;42916;54.346;18.562;2023-01-09T01:38:36;45.60;;;21.20;;
57023;SDS011;42916;54.346;18.562;2023-01-09T01:41:03;48.20;;;22.10;;
57023;SDS011;42916;54.346;18.562;2023-01-09T01:46:20;48.00;;;22.80;;
57023;SDS011;42916;54.346;18.562;2023-01-09T01:48:48;49.40;;;21.50;;
57023;SDS011;42916;54.346;18.562;2023-01-09T01:51:42;49.40;;;24.30;;
57023;SDS011;42916;54.346;18.562;2023-01-09T01:54:13;51.90;;;23.10;;
57023;SDS011;42916;54.346;18.562;2023-01-09T01:56:47;52.00;;;24.00;;
57023;SDS011;42916;54.346;18.562;2023-01-09T01:59:31;53.20;;;22.80;;
57023;SDS011;42916;54.346;18.562;2023-01-09T02:02:02;51.80;;;24.90;;
57023;SDS011;42916;54.346;18.562;2023-01-09T02:04:30;47.50;;;22.60;;
57023;SDS011;42916;54.346;18.562;2023-01-09T02:07:00;55.10;;;24.60;;
57023;SDS011;42916;54.346;18.562;2023-01-09T02:09:30;51.30;;;23.00;;
57023;SDS011;42916;54.346;18.562;2023-01-09T02:11:57;55.50;;;24.50;;
57023;SDS011;42916;54.346;18.562;2023-01-09T02:14:29;51.00;;;23.10;;
57023;SDS011;42916;54.346;18.562;2023-01-09T02:33:33;52.00;;;24.30;;
57023;SDS011;42916;54.346;18.562;2023-01-09T02:39:21;48.80;;;22.00;;
57023;SDS011;42916;54.346;18.562;2023-01-09T02:44:34;53.30;;;24.50;;
57023;SDS011;42916;54.346;18.562;2023-01-09T02:47:04;54.70;;;26.10;;
57023;SDS011;42916;54.346;18.562;2023-01-09T02:49:33;49.70;;;22.90;;
57023;SDS011;42916;54.346;18.562;2023-01-09T02:52:08;57.90;;;26.60;;
57023;SDS011;42916;54.346;18.562;2023-01-09T03:08:37;59.90;;;25.60;;
57023;SDS011;42916;54.346;18.562;2023-01-09T03:11:08;58.60;;;26.30;;
57023;SDS011;42916;54.346;18.562;2023-01-09T03:16:22;63.10;;;27.90;;
57023;SDS011;42916;54.346;18.562;2023-01-09T03:18:54;60.00;;;26.70;;
57023;SDS011;42916;54.346;18.562;2023-01-09T03:21:23;61.30;;;28.60;;
57023;SDS011;42916;54.346;18.562;2023-01-09T03:23:53;56.50;;;25.30;;
57023;SDS011;42916;54.346;18.562;2023-01-09T03:28:48;59.90;;;26.00;;
57023;SDS011;42916;54.346;18.562;2023-01-09T03:31:15;66.00;;;27.00;;
57023;SDS011;42916;54.346;18.562;2023-01-09T03:33:42;62.40;;;26.20;;
57023;SDS011;42916;54.346;18.562;2023-01-09T03:36:10;58.10;;;26.40;;
57023;SDS011;42916;54.346;18.562;2023-01-09T03:38:38;62.90;;;26.70;;
57023;SDS011;42916;54.346;18.562;2023-01-09T03:41:05;63.30;;;27.00;;
57023;SDS011;42916;54.346;18.562;2023-01-09T03:43:32;66.30;;;28.00;;
57023;SDS011;42916;54.346;18.562;2023-01-09T03:45:59;56.50;;;25.40;;
57023;SDS011;42916;54.346;18.562;2023-01-09T03:48:26;60.40;;;25.80;;
57023;SDS011;42916;54.346;18.562;2023-01-09T03:50:53;64.90;;;27.00;;
57023;SDS011;42916;54.346;18.562;2023-01-09T03:53:22;62.00;;;26.60;;
57023;SDS011;42916;54.346;18.562;2023-01-09T03:55:51;58.40;;;25.70;;
57023;SDS011;42916;54.346;18.562;2023-01-09T03:58:20;61.60;;;26.40;;
57023;SDS011;42916;54.346;18.562;2023-01-09T04:00:48;54.00;;;25.00;;
57023;SDS011;42916;54.346;18.562;2023-01-09T04:03:16;61.40;;;26.80;;
57023;SDS011;42916;54.346;18.562;2023-01-09T04:05:45;60.70;;;27.30;;
57023;SDS011;42916;54.346;18.562;2023-01-09T04:08:13;54.10;;;24.80;;
57023;SDS011;42916;54.346;18.562;2023-01-09T04:10:43;64.20;;;27.30;;
57023;SDS011;42916;54.346;18.562;2023-01-09T04:13:10;54.70;;;22.20;;
57023;SDS011;42916;54.346;18.562;2023-01-09T04:15:37;59.30;;;26.00;;
57023;SDS011;42916;54.346;18.562;2023-01-09T04:18:04;58.70;;;25.50;;
57023;SDS011;42916;54.346;18.562;2023-01-09T04:20:31;61.60;;;24.40;;
57023;SDS011;42916;54.346;18.562;2023-01-09T04:22:57;61.30;;;26.60;;
57023;SDS011;42916;54.346;18.562;2023-01-09T04:25:25;61.50;;;25.80;;
57023;SDS011;42916;54.346;18.562;2023-01-09T04:27:52;58.30;;;24.70;;
57023;SDS011;42916;54.346;18.562;2023-01-09T04:30:19;55.90;;;24.80;;
57023;SDS011;42916;54.346;18.562;2023-01-09T04:32:46;54.90;;;25.20;;
57023;SDS011;42916;54.346;18.562;2023-01-09T04:35:12;56.20;;;24.10;;
57023;SDS011;42916;54.346;18.562;2023-01-09T04:37:39;57.80;;;25.10;;
57023;SDS011;42916;54.346;18.562;2023-01-09T04:40:06;55.90;;;24.10;;
57023;SDS011;42916;54.346;18.562;2023-01-09T04:42:37;58.80;;;25.10;;
57023;SDS011;42916;54.346;18.562;2023-01-09T04:45:05;62.10;;;25.70;;
57023;SDS011;42916;54.346;18.562;2023-01-09T04:47:34;54.70;;;23.40;;
57023;SDS011;42916;54.346;18.562;2023-01-09T04:50:01;63.50;;;25.80;;
57023;SDS011;42916;54.346;18.562;2023-01-09T04:52:28;66.00;;;27.40;;
57023;SDS011;42916;54.346;18.562;2023-01-09T04:54:54;60.90;;;26.20;;
57023;SDS011;42916;54.346;18.562;2023-01-09T04:57:21;60.60;;;25.30;;
57023;SDS011;42916;54.346;18.562;2023-01-09T04:59:48;59.60;;;26.50;;
57023;SDS011;42916;54.346;18.562;2023-01-09T05:02:14;64.00;;;27.50;;
57023;SDS011;42916;54.346;18.562;2023-01-09T05:04:41;67.70;;;28.20;;
57023;SDS011;42916;54.346;18.562;2023-01-09T05:07:08;69.30;;;27.60;;
57023;SDS011;42916;54.346;18.562;2023-01-09T05:09:34;67.90;;;26.50;;
57023;SDS011;42916;54.346;18.562;2023-01-09T05:12:01;71.30;;;29.60;;
57023;SDS011;42916;54.346;18.562;2023-01-09T05:14:28;62.50;;;27.60;;
57023;SDS011;42916;54.346;18.562;2023-01-09T05:16:55;64.60;;;25.90;;
57023;SDS011;42916;54.346;18.562;2023-01-09T05:19:21;51.40;;;21.80;;
57023;SDS011;42916;54.346;18.562;2023-01-09T05:21:48;64.30;;;26.80;;
57023;SDS011;42916;54.346;18.562;2023-01-09T05:24:15;55.50;;;23.30;;
57023;SDS011;42916;54.346;18.562;2023-01-09T05:26:42;63.70;;;27.10;;
57023;SDS011;42916;54.346;18.562;2023-01-09T05:29:09;57.60;;;26.20;;
57023;SDS011;42916;54.346;18.562;2023-01-09T05:31:36;60.30;;;25.40;;
57023;SDS011;42916;54.346;18.562;2023-01-09T05:34:02;66.50;;;27.70;;
57023;SDS011;42916;54.346;18.562;2023-01-09T05:36:29;66.80;;;28.00;;
57023;SDS011;42916;54.346;18.562;2023-01-09T05:38:56;60.40;;;28.30;;
57023;SDS011;42916;54.346;18.562;2023-01-09T05:41:28;67.70;;;28.90;;
57023;SDS011;42916;54.346;18.562;2023-01-09T05:43:54;59.00;;;25.80;;
57023;SDS011;42916;54.346;18.562;2023-01-09T05:46:21;66.80;;;27.90;;
57023;SDS011;42916;54.346;18.562;2023-01-09T05:48:48;63.20;;;28.20;;
57023;SDS011;42916;54.346;18.562;2023-01-09T05:51:14;57.60;;;27.10;;
57023;SDS011;42916;54.346;18.562;2023-01-09T05:53:41;63.80;;;29.00;;
57023;SDS011;42916;54.346;18.562;2023-01-09T05:56:08;61.00;;;26.50;;
57023;SDS011;42916;54.346;18.562;2023-01-09T05:58:35;61.80;;;25.90;;
57023;SDS011;42916;54.346;18.562;2023-01-09T06:01:01;52.30;;;23.10;;
57023;SDS011;42916;54.346;18.562;2023-01-09T06:03:28;63.30;;;27.10;;
57023;SDS011;42916;54.346;18.562;2023-01-09T06:05:55;62.80;;;28.20;;
57023;SDS011;42916;54.346;18.562;2023-01-09T06:08:21;64.40;;;27.90;;
57023;SDS011;42916;54.346;18.562;2023-01-09T06:10:48;61.90;;;27.50;;
57023;SDS011;42916;54.346;18.562;2023-01-09T06:13:15;53.60;;;22.30;;
57023;SDS011;42916;54.346;18.562;2023-01-09T06:15:41;61.10;;;27.60;;
57023;SDS011;42916;54.346;18.562;2023-01-09T06:18:08;65.20;;;28.90;;
57023;SDS011;42916;54.346;18.562;2023-01-09T06:20:35;59.90;;;27.50;;
57023;SDS011;42916;54.346;18.562;2023-01-09T06:23:01;58.90;;;25.80;;
57023;SDS011;42916;54.346;18.562;2023-01-09T06:25:28;62.00;;;28.30;;
57023;SDS011;42916;54.346;18.562;2023-01-09T06:27:55;67.40;;;27.60;;
57023;SDS011;42916;54.346;18.562;2023-01-09T06:30:21;66.20;;;28.00;;
57023;SDS011;42916;54.346;18.562;2023-01-09T06:32:48;61.50;;;27.70;;
57023;SDS011;42916;54.346;18.562;2023-01-09T06:35:16;62.10;;;28.40;;
57023;SDS011;42916;54.346;18.562;2023-01-09T06:37:47;56.60;;;26.90;;
57023;SDS011;42916;54.346;18.562;2023-01-09T06:40:15;59.90;;;26.40;;
57023;SDS011;42916;54.346;18.562;2023-01-09T06:42:43;63.90;;;27.70;;
57023;SDS011;42916;54.346;18.562;2023-01-09T06:45:14;62.40;;;29.10;;
57023;SDS011;42916;54.346;18.562;2023-01-09T06:47:41;60.30;;;26.40;;
57023;SDS011;42916;54.346;18.562;2023-01-09T06:50:08;67.50;;;29.50;;
57023;SDS011;42916;54.346;18.562;2023-01-09T06:52:35;68.00;;;28.80;;
57023;SDS011;42916;54.346;18.562;2023-01-09T06:55:03;62.00;;;29.10;;
57023;SDS011;42916;54.346;18.562;2023-01-09T06:57:30;63.10;;;26.40;;
57023;SDS011;42916;54.346;18.562;2023-01-09T06:59:57;68.00;;;28.90;;
57023;SDS011;42916;54.346;18.562;2023-01-09T07:02:23;66.00;;;27.60;;
57023;SDS011;42916;54.346;18.562;2023-01-09T07:04:50;55.70;;;24.80;;
57023;SDS011;42916;54.346;18.562;2023-01-09T07:07:17;68.70;;;28.70;;
57023;SDS011;42916;54.346;18.562;2023-01-09T07:09:45;65.60;;;28.10;;
57023;SDS011;42916;54.346;18.562;2023-01-09T07:12:12;67.60;;;28.00;;
57023;SDS011;42916;54.346;18.562;2023-01-09T07:14:40;61.30;;;27.60;;
57023;SDS011;42916;54.346;18.562;2023-01-09T07:17:07;67.40;;;28.10;;
57023;SDS011;42916;54.346;18.562;2023-01-09T07:19:35;62.00;;;27.10;;
57023;SDS011;42916;54.346;18.562;2023-01-09T07:22:02;67.20;;;29.10;;
57023;SDS011;42916;54.346;18.562;2023-01-09T07:24:28;57.00;;;25.50;;
57023;SDS011;42916;54.346;18.562;2023-01-09T07:26:55;59.10;;;24.70;;
57023;SDS011;42916;54.346;18.562;2023-01-09T07:29:22;68.50;;;27.00;;
57023;SDS011;42916;54.346;18.562;2023-01-09T07:31:48;61.90;;;27.90;;
57023;SDS011;42916;54.346;18.562;2023-01-09T07:34:15;64.00;;;27.40;;
57023;SDS011;42916;54.346;18.562;2023-01-09T07:36:42;70.50;;;29.00;;
57023;SDS011;42916;54.346;18.562;2023-01-09T07:39:12;70.20;;;30.00;;
57023;SDS011;42916;54.346;18.562;2023-01-09T07:41:39;70.80;;;29.30;;
57023;SDS011;42916;54.346;18.562;2023-01-09T07:46:34;63.70;;;26.00;;
57023;SDS011;42916;54.346;18.562;2023-01-09T07:49:01;66.80;;;29.70;;
57023;SDS011;42916;54.346;18.562;2023-01-09T07:51:28;70.50;;;28.80;;
57023;SDS011;42916;54.346;18.562;2023-01-09T07:53:54;65.80;;;26.00;;
57023;SDS011;42916;54.346;18.562;2023-01-09T07:56:21;69.60;;;28.80;;
57023;SDS011;42916;54.346;18.562;2023-01-09T07:58:48;66.50;;;28.20;;
57023;SDS011;42916;54.346;18.562;2023-01-09T08:01:14;69.40;;;29.60;;
57023;SDS011;42916;54.346;18.562;2023-01-09T08:03:41;72.10;;;30.80;;
57023;SDS011;42916;54.346;18.562;2023-01-09T08:06:08;71.80;;;30.40;;
57023;SDS011;42916;54.346;18.562;2023-01-09T08:08:35;69.80;;;29.90;;
57023;SDS011;42916;54.346;18.562;2023-01-09T08:11:02;70.50;;;28.70;;
57023;SDS011;42916;54.346;18.562;2023-01-09T08:13:29;72.70;;;28.80;;
57023;SDS011;42916;54.346;18.562;2023-01-09T08:15:55;67.90;;;29.40;;
57023;SDS011;42916;54.346;18.562;2023-01-09T08:18:22;75.50;;;31.60;;
57023;SDS011;42916;54.346;18.562;2023-01-09T08:20:49;72.80;;;29.80;;
57023;SDS011;42916;54.346;18.562;2023-01-09T08:23:15;68.90;;;29.40;;
57023;SDS011;42916;54.346;18.562;2023-01-09T08:25:42;68.20;;;28.30;;
57023;SDS011;42916;54.346;18.562;2023-01-09T08:28:09;73.50;;;30.00;;
57023;SDS011;42916;54.346;18.562;2023-01-09T08:30:36;68.90;;;28.60;;
57023;SDS011;42916;54.346;18.562;2023-01-09T08:33:03;69.10;;;29.90;;
57023;SDS011;42916;54.346;18.562;2023-01-09T08:35:30;71.10;;;29.40;;
57023;SDS011;42916;54.346;18.562;2023-01-09T08:37:57;72.80;;;30.90;;
57023;SDS011;42916;54.346;18.562;2023-01-09T08:40:24;76.70;;;31.90;;
57023;SDS011;42916;54.346;18.562;2023-01-09T08:42:50;74.80;;;31.50;;
57023;SDS011;42916;54.346;18.562;2023-01-09T08:45:36;71.20;;;29.80;;
57023;SDS011;42916;54.346;18.562;2023-01-09T08:48:21;77.60;;;31.90;;
57023;SDS011;42916;54.346;18.562;2023-01-09T08:50:48;74.20;;;31.10;;
57023;SDS011;42916;54.346;18.562;2023-01-09T08:53:15;69.50;;;28.60;;
57023;SDS011;42916;54.346;18.562;2023-01-09T08:55:41;69.90;;;27.70;;
57023;SDS011;42916;54.346;18.562;2023-01-09T08:58:09;74.60;;;30.80;;
57023;SDS011;42916;54.346;18.562;2023-01-09T09:00:35;78.10;;;30.10;;
57023;SDS011;42916;54.346;18.562;2023-01-09T09:03:02;73.80;;;29.40;;
57023;SDS011;42916;54.346;18.562;2023-01-09T09:05:30;69.40;;;28.10;;
57023;SDS011;42916;54.346;18.562;2023-01-09T09:07:57;76.80;;;29.90;;
57023;SDS011;42916;54.346;18.562;2023-01-09T09:10:25;76.10;;;29.30;;
57023;SDS011;42916;54.346;18.562;2023-01-09T09:12:55;74.00;;;28.60;;
57023;SDS011;42916;54.346;18.562;2023-01-09T09:15:24;74.90;;;29.60;;
57023;SDS011;42916;54.346;18.562;2023-01-09T09:18:02;76.30;;;29.40;;
57023;SDS011;42916;54.346;18.562;2023-01-09T09:20:36;72.10;;;28.70;;
57023;SDS011;42916;54.346;18.562;2023-01-09T09:23:04;69.70;;;28.20;;
57023;SDS011;42916;54.346;18.562;2023-01-09T09:28:00;71.30;;;27.50;;
57023;SDS011;42916;54.346;18.562;2023-01-09T09:30:27;75.30;;;28.00;;
57023;SDS011;42916;54.346;18.562;2023-01-09T09:32:54;77.20;;;30.20;;
57023;SDS011;42916;54.346;18.562;2023-01-09T09:35:21;77.20;;;31.50;;
57023;SDS011;42916;54.346;18.562;2023-01-09T09:37:51;74.00;;;29.20;;
57023;SDS011;42916;54.346;18.562;2023-01-09T09:40:21;73.00;;;28.30;;
57023;SDS011;42916;54.346;18.562;2023-01-09T09:43:15;76.90;;;29.20;;
57023;SDS011;42916;54.346;18.562;2023-01-09T09:48:41;79.10;;;29.80;;
57023;SDS011;42916;54.346;18.562;2023-01-09T09:53:56;74.10;;;29.50;;
57023;SDS011;42916;54.346;18.562;2023-01-09T09:56:26;80.10;;;29.50;;
57023;SDS011;42916;54.346;18.562;2023-01-09T09:59:05;73.70;;;28.10;;
57023;SDS011;42916;54.346;18.562;2023-01-09T10:01:42;71.30;;;28.50;;
57023;SDS011;42916;54.346;18.562;2023-01-09T10:04:23;68.80;;;28.80;;
57023;SDS011;42916;54.346;18.562;2023-01-09T10:06:56;74.80;;;28.80;;
57023;SDS011;42916;54.346;18.562;2023-01-09T10:09:35;71.90;;;27.90;;
57023;SDS011;42916;54.346;18.562;2023-01-09T10:12:27;70.40;;;28.10;;
57023;SDS011;42916;54.346;18.562;2023-01-09T10:15:01;67.80;;;27.60;;
57023;SDS011;42916;54.346;18.562;2023-01-09T10:37:19;75.70;;;29.80;;
57023;SDS011;42916;54.346;18.562;2023-01-09T10:43:15;74.00;;;28.60;;
57023;SDS011;42916;54.346;18.562;2023-01-09T10:45:55;79.30;;;29.10;;
57023;SDS011;42916;54.346;18.562;2023-01-09T10:51:18;67.60;;;26.00;;
57023;SDS011;42916;54.346;18.562;2023-01-09T10:53:55;77.60;;;28.80;;
57023;SDS011;42916;54.346;18.562;2023-01-09T10:56:23;83.70;;;30.80;;
57023;SDS011;42916;54.346;18.562;2023-01-09T10:58:53;83.60;;;31.30;;
57023;SDS011;42916;54.346;18.562;2023-01-09T11:03:51;86.10;;;30.80;;
57023;SDS011;42916;54.346;18.562;2023-01-09T11:06:21;72.00;;;27.20;;
57023;SDS011;42916;54.346;18.562;2023-01-09T11:08:55;79.70;;;30.80;;
57023;SDS011;42916;54.346;18.562;2023-01-09T11:16:54;85.10;;;31.60;;
57023;SDS011;42916;54.346;18.562;2023-01-09T11:19:22;78.10;;;30.80;;
57023;SDS011;42916;54.346;18.562;2023-01-09T11:22:05;76.00;;;30.40;;
57023;SDS011;42916;54.346;18.562;2023-01-09T11:24:40;75.90;;;28.40;;
57023;SDS011;42916;54.346;18.562;2023-01-09T11:29:39;84.40;;;30.00;;
57023;SDS011;42916;54.346;18.562;2023-01-09T11:32:18;74.30;;;29.20;;
57023;SDS011;42916;54.346;18.562;2023-01-09T11:34:48;76.10;;;28.90;;
57023;SDS011;42916;54.346;18.562;2023-01-09T11:37:17;75.70;;;30.00;;
57023;SDS011;42916;54.346;18.562;2023-01-09T11:39:51;78.20;;;30.50;;
57023;SDS011;42916;54.346;18.562;2023-01-09T11:42:25;70.50;;;27.90;;
57023;SDS011;42916;54.346;18.562;2023-01-09T11:45:16;76.80;;;28.60;;
57023;SDS011;42916;54.346;18.562;2023-01-09T11:47:46;77.70;;;28.90;;
57023;SDS011;42916;54.346;18.562;2023-01-09T11:50:20;73.70;;;29.80;;
57023;SDS011;42916;54.346;18.562;2023-01-09T11:55:39;75.50;;;29.90;;
57023;SDS011;42916;54.346;18.562;2023-01-09T11:58:12;74.10;;;29.30;;
57023;SDS011;42916;54.346;18.562;2023-01-09T12:00:59;65.90;;;27.90;;
57023;SDS011;42916;54.346;18.562;2023-01-09T12:06:49;68.40;;;26.90;;
57023;SDS011;42916;54.346;18.562;2023-01-09T12:09:27;66.40;;;26.30;;
57023;SDS011;42916;54.346;18.562;2023-01-09T12:12:01;68.40;;;26.30;;
57023;SDS011;42916;54.346;18.562;2023-01-09T12:25:50;76.80;;;28.30;;
57023;SDS011;42916;54.346;18.562;2023-01-09T12:45:25;84.10;;;29.70;;
57023;SDS011;42916;54.346;18.562;2023-01-09T12:48:02;71.90;;;27.20;;
57023;SDS011;42916;54.346;18.562;2023-01-09T12:56:53;76.30;;;28.00;;
57023;SDS011;42916;54.346;18.562;2023-01-09T13:02:05;72.80;;;29.50;;
57023;SDS011;42916;54.346;18.562;2023-01-09T13:04:38;78.10;;;29.30;;
57023;SDS011;42916;54.346;18.562;2023-01-09T13:07:14;79.80;;;29.60;;
57023;SDS011;42916;54.346;18.562;2023-01-09T13:14:54;78.30;;;27.80;;
57023;SDS011;42916;54.346;18.562;2023-01-09T13:20:19;78.40;;;29.40;;
57023;SDS011;42916;54.346;18.562;2023-01-09T13:22:48;85.30;;;31.20;;
57023;SDS011;42916;54.346;18.562;2023-01-09T13:25:34;91.70;;;32.00;;
57023;SDS011;42916;54.346;18.562;2023-01-09T13:28:40;82.60;;;31.90;;
57023;SDS011;42916;54.346;18.562;2023-01-09T13:33:52;73.40;;;27.90;;
57023;SDS011;42916;54.346;18.562;2023-01-09T13:36:32;80.80;;;30.70;;
57023;SDS011;42916;54.346;18.562;2023-01-09T13:39:05;83.40;;;30.80;;
57023;SDS011;42916;54.346;18.562;2023-01-09T13:41:32;84.00;;;31.20;;
57023;SDS011;42916;54.346;18.562;2023-01-09T13:44:31;88.70;;;32.80;;
57023;SDS011;42916;54.346;18.562;2023-01-09T13:46:58;82.40;;;32.40;;
57023;SDS011;42916;54.346;18.562;2023-01-09T13:49:28;86.00;;;31.80;;
57023;SDS011;42916;54.346;18.562;2023-01-09T13:51:59;78.40;;;30.90;;
57023;SDS011;42916;54.346;18.562;2023-01-09T13:57:24;77.40;;;30.60;;
57023;SDS011;42916;54.346;18.562;2023-01-09T13:59:57;86.80;;;32.20;;
57023;SDS011;42916;54.346;18.562;2023-01-09T14:05:02;82.50;;;33.60;;
57023;SDS011;42916;54.346;18.562;2023-01-09T14:07:35;84.20;;;33.50;;
57023;SDS011;42916;54.346;18.562;2023-01-09T14:10:05;89.60;;;33.90;;
57023;SDS011;42916;54.346;18.562;2023-01-09T14:12:46;86.00;;;32.50;;
57023;SDS011;42916;54.346;18.562;2023-01-09T14:15:25;86.80;;;33.70;;
57023;SDS011;42916;54.346;18.562;2023-01-09T14:17:57;82.20;;;32.40;;
57023;SDS011;42916;54.346;18.562;2023-01-09T14:20:29;80.20;;;33.00;;
57023;SDS011;42916;54.346;18.562;2023-01-09T14:23:03;86.30;;;32.70;;
57023;SDS011;42916;54.346;18.562;2023-01-09T14:25:31;81.50;;;32.70;;
57023;SDS011;42916;54.346;18.562;2023-01-09T14:30:32;86.70;;;33.10;;
57023;SDS011;42916;54.346;18.562;2023-01-09T14:38:55;91.30;;;34.30;;
57023;SDS011;42916;54.346;18.562;2023-01-09T14:41:31;86.70;;;34.60;;
57023;SDS011;42916;54.346;18.562;2023-01-09T14:44:28;86.70;;;34.10;;
57023;SDS011;42916;54.346;18.562;2023-01-09T14:46:56;80.40;;;33.10;;
57023;SDS011;42916;54.346;18.562;2023-01-09T14:52:14;87.00;;;32.80;;
57023;SDS011;42916;54.346;18.562;2023-01-09T14:54:50;90.50;;;35.20;;
57023;SDS011;42916;54.346;18.562;2023-01-09T14:57:24;83.30;;;32.00;;
57023;SDS011;42916;54.346;18.562;2023-01-09T15:00:03;86.20;;;35.20;;
57023;SDS011;42916;54.346;18.562;2023-01-09T15:02:50;83.10;;;35.00;;
57023;SDS011;42916;54.346;18.562;2023-01-09T15:05:22;87.70;;;35.50;;
57023;SDS011;42916;54.346;18.562;2023-01-09T15:07:53;83.90;;;33.70;;
57023;SDS011;42916;54.346;18.562;2023-01-09T15:10:25;81.20;;;33.30;;
57023;SDS011;42916;54.346;18.562;2023-01-09T15:12:56;77.80;;;31.90;;
57023;SDS011;42916;54.346;18.562;2023-01-09T15:15:26;85.90;;;34.40;;
57023;SDS011;42916;54.346;18.562;2023-01-09T15:17:55;90.40;;;35.80;;
57023;SDS011;42916;54.346;18.562;2023-01-09T15:20:30;86.60;;;34.30;;
57023;SDS011;42916;54.346;18.562;2023-01-09T15:22:58;82.40;;;33.90;;
57023;SDS011;42916;54.346;18.562;2023-01-09T15:25:33;81.30;;;33.00;;
57023;SDS011;42916;54.346;18.562;2023-01-09T15:28:18;84.00;;;34.10;;
57023;SDS011;42916;54.346;18.562;2023-01-09T15:30:51;77.20;;;32.20;;
57023;SDS011;42916;54.346;18.562;2023-01-09T15:33:39;81.00;;;32.40;;
57023;SDS011;42916;54.346;18.562;2023-01-09T15:36:21;74.40;;;32.00;;
57023;SDS011;42916;54.346;18.562;2023-01-09T15:38:51;84.30;;;32.40;;
57023;SDS011;42916;54.346;18.562;2023-01-09T15:41:28;76.40;;;31.80;;
57023;SDS011;42916;54.346;18.562;2023-01-09T15:44:20;82.80;;;34.20;;
57023;SDS011;42916;54.346;18.562;2023-01-09T15:46:51;75.10;;;33.30;;
57023;SDS011;42916;54.346;18.562;2023-01-09T15:49:22;80.40;;;33.90;;
57023;SDS011;42916;54.346;18.562;2023-01-09T15:51:50;71.90;;;30.90;;
57023;SDS011;42916;54.346;18.562;2023-01-09T15:54:19;75.40;;;33.60;;
57023;SDS011;42916;54.346;18.562;2023-01-09T15:59:52;76.00;;;33.00;;
57023;SDS011;42916;54.346;18.562;2023-01-09T16:02:20;71.60;;;32.80;;
57023;SDS011;42916;54.346;18.562;2023-01-09T16:05:08;82.50;;;34.60;;
57023;SDS011;42916;54.346;18.562;2023-01-09T16:07:45;76.50;;;32.90;;
57023;SDS011;42916;54.346;18.562;2023-01-09T16:10:22;72.90;;;34.10;;
57023;SDS011;42916;54.346;18.562;2023-01-09T16:12:53;79.80;;;35.00;;
57023;SDS011;42916;54.346;18.562;2023-01-09T16:15:20;70.30;;;31.40;;
57023;SDS011;42916;54.346;18.562;2023-01-09T16:21:05;71.00;;;31.90;;
57023;SDS011;42916;54.346;18.562;2023-01-09T16:23:54;80.40;;;32.40;;
57023;SDS011;42916;54.346;18.562;2023-01-09T16:26:23;66.60;;;31.70;;
57023;SDS011;42916;54.346;18.562;2023-01-09T16:28:52;75.60;;;33.20;;
57023;SDS011;42916;54.346;18.562;2023-01-09T16:31:29;72.90;;;32.70;;
57023;SDS011;42916;54.346;18.562;2023-01-09T16:33:58;75.50;;;31.90;;
57023;SDS011;42916;54.346;18.562;2023-01-09T16:36:29;68.10;;;30.60;;
57023;SDS011;42916;54.346;18.562;2023-01-09T16:38:56;70.00;;;31.30;;
57023;SDS011;42916;54.346;18.562;2023-01-09T16:41:26;67.60;;;29.80;;
57023;SDS011;42916;54.346;18.562;2023-01-09T16:44:11;71.50;;;33.20;;
57023;SDS011;42916;54.346;18.562;2023-01-09T16:46:41;73.20;;;32.50;;
57023;SDS011;42916;54.346;18.562;2023-01-09T16:49:19;68.40;;;32.00;;
57023;SDS011;42916;54.346;18.562;2023-01-09T16:51:49;73.10;;;32.00;;
57023;SDS011;42916;54.346;18.562;2023-01-09T16:54:17;79.00;;;34.10;;
57023;SDS011;42916;54.346;18.562;2023-01-09T16:56:45;76.00;;;35.20;;
57023;SDS011;42916;54.346;18.562;2023-01-09T16:59:16;75.60;;;33.80;;
57023;SDS011;42916;54.346;18.562;2023-01-09T17:01:51;77.70;;;33.80;;
57023;SDS011;42916;54.346;18.562;2023-01-09T17:04:19;74.10;;;33.90;;
57023;SDS011;42916;54.346;18.562;2023-01-09T17:06:48;78.20;;;33.40;;
57023;SDS011;42916;54.346;18.562;2023-01-09T17:09:17;72.60;;;32.40;;
57023;SDS011;42916;54.346;18.562;2023-01-09T17:11:45;69.20;;;31.60;;
57023;SDS011;42916;54.346;18.562;2023-01-09T17:14:12;70.40;;;31.60;;
57023;SDS011;42916;54.346;18.562;2023-01-09T17:16:39;73.10;;;31.90;;